createdAt,value
2023-09-23T00:02:30.165Z,49.55
2023-09-23T00:05:00.744Z,49.73
2023-09-23T00:18:18.864Z,50.10
2023-09-23T00:20:49.755Z,50.04
2023-09-23T00:23:21.228Z,50.07
2023-09-23T00:25:52.380Z,50.15
2023-09-23T00:28:27.139Z,50.38
2023-09-23T00:31:04.677Z,50.43
2023-09-23T00:33:37.805Z,50.42
2023-09-23T00:36:08.717Z,50.46
2023-09-23T00:38:38.914Z,50.42
2023-09-23T00:41:11.823Z,50.36
2023-09-23T00:43:42.009Z,50.37
2023-09-23T00:46:14.386Z,50.50
2023-09-23T00:48:45.462Z,50.69
2023-09-23T00:51:15.561Z,50.79
2023-09-23T00:53:45.677Z,50.86
2023-09-23T00:56:17.512Z,51.04
2023-09-23T00:58:48.107Z,51.27
2023-09-23T01:01:18.613Z,51.35
2023-09-23T01:03:51.166Z,51.48
2023-09-23T01:06:23.175Z,51.48
2023-09-23T01:08:55.656Z,51.53
2023-09-23T01:11:28.537Z,51.69
2023-09-23T01:13:58.764Z,51.76
2023-09-23T01:16:28.670Z,51.85
2023-09-23T01:18:59.518Z,51.88
2023-09-23T01:21:29.548Z,51.97
2023-09-23T01:24:00.000Z,52.15
2023-09-23T01:26:30.022Z,52.33
2023-09-23T01:28:59.961Z,52.33
2023-09-23T01:31:30.695Z,52.48
2023-09-23T01:34:00.893Z,52.52
2023-09-23T01:36:32.809Z,52.48
2023-09-23T01:39:05.865Z,52.70
2023-09-23T01:54:06.525Z,53.32
2023-09-23T01:56:37.772Z,53.50
2023-09-23T01:59:08.481Z,53.46
2023-09-23T02:01:41.408Z,53.40
2023-09-23T02:04:12.236Z,53.49
2023-09-23T02:06:43.650Z,53.69
2023-09-23T02:09:13.618Z,53.72
2023-09-23T02:11:43.743Z,53.87
2023-09-23T02:14:13.662Z,53.92
2023-09-23T02:16:43.620Z,53.99
2023-09-23T02:19:14.299Z,54.06
2023-09-23T02:21:44.370Z,54.23
2023-09-23T02:24:14.846Z,54.16
2023-09-23T02:26:46.973Z,54.28
2023-09-23T02:29:18.067Z,54.42
2023-09-23T02:31:50.052Z,54.49
2023-09-23T02:34:21.324Z,54.61
2023-09-23T02:36:52.027Z,54.64
2023-09-23T02:39:22.101Z,54.76
2023-09-23T02:41:52.562Z,54.84
2023-09-23T02:44:24.233Z,54.96
2023-09-23T02:46:54.659Z,55.11
2023-09-23T02:49:24.611Z,55.10
2023-09-23T02:51:54.836Z,55.18
2023-09-23T02:54:25.125Z,55.20
2023-09-23T02:56:55.130Z,55.18
2023-09-23T02:59:30.945Z,55.30
2023-09-23T03:02:02.049Z,55.46
2023-09-23T03:04:34.183Z,55.66
2023-09-23T03:07:08.166Z,55.83
2023-09-23T03:09:45.058Z,55.94
2023-09-23T03:12:16.691Z,56.18
2023-09-23T03:14:52.964Z,56.30
2023-09-23T03:17:23.622Z,56.46
2023-09-23T03:19:54.640Z,56.66
2023-09-23T03:22:25.164Z,56.82
2023-09-23T03:24:55.360Z,56.99
2023-09-23T03:27:29.607Z,57.24
2023-09-23T03:30:04.658Z,57.45
2023-09-23T03:32:35.920Z,57.65
2023-09-23T03:35:14.805Z,57.87
2023-09-23T03:37:46.926Z,58.09
2023-09-23T03:40:17.118Z,58.17
2023-09-23T03:42:48.101Z,58.15
2023-09-23T03:45:19.079Z,58.27
2023-09-23T03:47:49.543Z,58.40
2023-09-23T03:50:19.999Z,58.53
2023-09-23T03:52:52.361Z,58.54
2023-09-23T03:55:22.450Z,58.74
2023-09-23T03:57:55.293Z,58.70
2023-09-23T04:00:28.636Z,58.82
2023-09-23T04:02:58.745Z,58.92
2023-09-23T04:05:32.185Z,58.88
2023-09-23T04:08:02.427Z,58.97
2023-09-23T04:10:32.551Z,58.98
2023-09-23T04:13:02.539Z,58.88
2023-09-23T04:15:32.900Z,58.98
2023-09-23T04:18:04.149Z,58.95
2023-09-23T04:20:34.352Z,59.02
2023-09-23T04:23:04.789Z,59.03
2023-09-23T04:25:35.864Z,59.09
2023-09-23T04:28:06.996Z,59.08
2023-09-23T04:30:36.880Z,59.14
2023-09-23T04:33:07.468Z,59.14
2023-09-23T04:35:37.513Z,59.13
2023-09-23T04:38:09.204Z,59.10
2023-09-23T04:40:40.781Z,59.11
2023-09-23T04:43:14.315Z,59.01
2023-09-23T04:45:45.607Z,59.07
2023-09-23T04:48:19.052Z,59.02
2023-09-23T04:50:49.117Z,58.97
2023-09-23T04:53:19.236Z,58.93
2023-09-23T04:55:49.294Z,58.89
2023-09-23T04:58:19.304Z,58.88
2023-09-23T05:00:49.601Z,58.78
2023-09-23T05:03:21.086Z,58.89
2023-09-23T05:05:51.324Z,58.91
2023-09-23T05:08:21.534Z,58.78
2023-09-23T05:10:51.889Z,58.74
2023-09-23T05:13:21.923Z,58.81
2023-09-23T05:15:51.891Z,58.78
2023-09-23T05:18:21.862Z,58.89
2023-09-23T05:20:51.852Z,58.86
2023-09-23T05:23:24.623Z,58.82
2023-09-23T05:25:59.091Z,58.78
2023-09-23T05:28:29.470Z,58.96
2023-09-23T05:31:00.116Z,58.89
2023-09-23T05:33:30.317Z,59.07
2023-09-23T05:36:00.339Z,59.36
2023-09-23T05:38:30.680Z,59.44
2023-09-23T05:41:00.650Z,59.45
2023-09-23T05:43:30.907Z,59.38
2023-09-23T05:46:08.066Z,59.39
2023-09-23T05:48:38.754Z,59.35
2023-09-23T05:51:09.226Z,59.45
2023-09-23T05:57:15.815Z,59.93
2023-09-23T05:59:45.733Z,59.65
2023-09-23T06:02:15.666Z,59.68
2023-09-23T06:04:46.503Z,59.82
2023-09-23T06:07:16.700Z,59.81
2023-09-23T06:09:47.313Z,59.76
2023-09-23T06:12:17.744Z,59.71
2023-09-23T06:14:48.593Z,59.66
2023-09-23T06:17:18.549Z,59.70
2023-09-23T06:19:49.332Z,59.73
2023-09-23T06:22:19.887Z,59.61
2023-09-23T06:24:53.727Z,59.58
2023-09-23T06:27:23.988Z,59.38
2023-09-23T06:29:54.473Z,59.27
2023-09-23T06:32:24.660Z,59.17
2023-09-23T06:34:54.951Z,58.99
2023-09-23T06:37:25.038Z,58.87
2023-09-23T06:39:55.277Z,58.63
2023-09-23T06:42:25.557Z,58.54
2023-09-23T06:44:55.667Z,58.49
2023-09-23T06:47:25.847Z,58.26
2023-09-23T06:49:55.987Z,57.77
2023-09-23T06:52:26.214Z,57.52
2023-09-23T06:54:56.498Z,57.20
2023-09-23T06:57:26.825Z,56.41
2023-09-23T06:59:57.249Z,55.90
2023-09-23T07:02:27.975Z,55.92
2023-09-23T07:04:58.301Z,55.97
2023-09-23T07:07:28.592Z,55.59
2023-09-23T07:09:58.896Z,55.30
2023-09-23T07:12:29.009Z,55.23
2023-09-23T07:14:59.392Z,54.93
2023-09-23T07:17:32.249Z,54.87
2023-09-23T07:20:02.944Z,54.79
2023-09-23T07:22:33.140Z,54.44
2023-09-23T07:25:04.501Z,54.13
2023-09-23T07:27:34.799Z,53.98
2023-09-23T07:30:05.733Z,54.02
2023-09-23T07:32:35.966Z,54.07
2023-09-23T07:35:08.783Z,53.88
2023-09-23T07:37:38.985Z,53.32
2023-09-23T07:40:10.755Z,52.65
2023-09-23T07:42:40.657Z,52.58
2023-09-23T07:45:12.260Z,52.16
2023-09-23T07:47:44.929Z,51.65
2023-09-23T07:50:15.043Z,51.46
2023-09-23T07:52:45.075Z,51.18
2023-09-23T07:55:15.336Z,51.27
2023-09-23T07:57:45.465Z,51.48
2023-09-23T08:00:17.911Z,51.50
2023-09-23T08:02:48.039Z,51.53
2023-09-23T08:05:18.497Z,51.28
2023-09-23T08:07:48.642Z,51.16
2023-09-23T08:10:19.061Z,51.03
2023-09-23T08:12:49.585Z,50.74
2023-09-23T08:15:19.975Z,50.73
2023-09-23T08:17:50.105Z,50.30
2023-09-23T08:20:22.971Z,50.26
2023-09-23T08:22:53.246Z,49.79
2023-09-23T08:25:24.504Z,49.90
2023-09-23T08:27:58.103Z,49.46
2023-09-23T08:30:28.037Z,49.20
2023-09-23T08:32:58.147Z,49.07
2023-09-23T08:35:31.719Z,49.09
2023-09-23T08:38:02.377Z,48.98
2023-09-23T08:40:34.386Z,48.79
2023-09-23T08:43:06.550Z,48.70
2023-09-23T08:45:37.943Z,48.44
2023-09-23T08:48:08.986Z,48.20
2023-09-23T08:50:39.276Z,47.86
2023-09-23T08:53:09.335Z,47.71
2023-09-23T08:55:39.360Z,47.70
2023-09-23T08:58:09.235Z,47.49
2023-09-23T09:00:45.829Z,47.22
2023-09-23T09:03:16.034Z,47.25
2023-09-23T09:05:48.035Z,47.16
2023-09-23T09:08:19.883Z,46.88
2023-09-23T09:10:50.597Z,46.97
2023-09-23T09:13:20.852Z,46.77
2023-09-23T09:15:51.849Z,46.68
2023-09-23T09:18:22.186Z,46.18
2023-09-23T09:20:52.267Z,45.94
2023-09-23T09:23:22.543Z,45.92
2023-09-23T09:25:53.002Z,45.76
2023-09-23T09:28:23.496Z,45.58
2023-09-23T09:30:57.728Z,45.45
2023-09-23T09:33:29.742Z,44.99
2023-09-23T09:36:00.080Z,44.52
2023-09-23T09:38:30.073Z,44.57
2023-09-23T09:41:04.321Z,44.35
2023-09-23T09:43:35.132Z,44.23
2023-09-23T09:46:09.749Z,44.21
2023-09-23T09:48:42.721Z,43.92
2023-09-23T09:51:16.954Z,43.92
2023-09-23T09:53:47.161Z,43.48
2023-09-23T09:56:19.263Z,43.49
2023-09-23T09:58:51.590Z,43.16
2023-09-23T10:01:21.672Z,43.02
2023-09-23T10:03:54.250Z,43.04
2023-09-23T10:06:24.318Z,42.85
2023-09-23T10:08:55.097Z,42.97
2023-09-23T10:11:36.865Z,42.97
2023-09-23T10:14:19.680Z,42.49
2023-09-23T10:16:53.598Z,42.11
2023-09-23T10:19:33.616Z,41.76
2023-09-23T10:22:14.629Z,41.71
2023-09-23T10:24:45.258Z,41.69
2023-09-23T10:27:19.538Z,42.11
2023-09-23T10:29:49.708Z,42.10
2023-09-23T10:32:20.152Z,41.81
2023-09-23T10:34:51.279Z,41.66
2023-09-23T10:37:31.979Z,41.23
2023-09-23T10:40:15.169Z,41.07
2023-09-23T10:42:46.634Z,40.87
2023-09-23T10:45:21.545Z,40.82
2023-09-23T10:47:51.831Z,40.23
2023-09-23T10:50:21.995Z,40.32
2023-09-23T10:52:52.332Z,40.39
2023-09-23T10:55:22.618Z,40.20
2023-09-23T10:57:52.576Z,39.84
2023-09-23T11:00:22.641Z,39.79
2023-09-23T11:02:56.395Z,39.85
2023-09-23T11:05:26.631Z,39.54
2023-09-23T11:07:57.871Z,39.42
2023-09-23T11:10:29.401Z,38.89
2023-09-23T11:12:59.611Z,38.79
2023-09-23T11:15:31.760Z,38.70
2023-09-23T11:18:01.919Z,38.09
2023-09-23T11:20:32.717Z,37.77
2023-09-23T11:23:04.970Z,37.87
2023-09-23T11:25:41.044Z,37.89
2023-09-23T11:28:19.595Z,37.95
2023-09-23T11:30:50.786Z,37.81
2023-09-23T11:33:22.460Z,37.88
2023-09-23T11:35:52.560Z,37.45
2023-09-23T11:38:22.602Z,37.12
2023-09-23T11:40:53.030Z,37.09
2023-09-23T11:43:23.343Z,36.89
2023-09-23T11:45:53.238Z,36.88
2023-09-23T11:48:23.739Z,36.93
2023-09-23T11:50:54.016Z,36.88
2023-09-23T11:53:23.968Z,36.92
2023-09-23T11:55:53.983Z,36.76
2023-09-23T11:58:24.636Z,36.81
2023-09-23T12:00:55.294Z,36.52
2023-09-23T12:03:27.182Z,36.33
2023-09-23T12:05:57.393Z,36.16
2023-09-23T12:08:27.469Z,35.89
2023-09-23T12:10:59.433Z,35.97
2023-09-23T12:13:29.353Z,35.78
2023-09-23T12:15:59.286Z,35.89
2023-09-23T12:18:29.581Z,35.94
2023-09-23T12:20:59.896Z,35.63
2023-09-23T12:23:32.175Z,35.46
2023-09-23T12:26:04.484Z,35.46
2023-09-23T12:28:34.567Z,35.20
2023-09-23T12:31:04.506Z,35.26
2023-09-23T12:33:34.413Z,35.34
2023-09-23T12:36:04.628Z,35.36
2023-09-23T12:38:34.670Z,35.38
2023-09-23T12:41:04.734Z,35.22
2023-09-23T12:43:34.635Z,34.93
2023-09-23T12:46:04.753Z,35.05
2023-09-23T12:48:34.870Z,34.90
2023-09-23T12:51:05.144Z,35.07
2023-09-23T12:53:35.226Z,35.10
2023-09-23T12:56:05.541Z,34.80
2023-09-23T12:58:36.060Z,34.68
2023-09-23T13:01:08.250Z,34.56
2023-09-23T13:03:38.352Z,34.68
2023-09-23T13:06:08.641Z,34.23
2023-09-23T13:08:39.417Z,33.87
2023-09-23T13:11:09.393Z,34.18
2023-09-23T13:13:39.339Z,34.22
2023-09-23T13:16:09.204Z,33.47
2023-09-23T13:18:39.122Z,33.64
2023-09-23T13:21:11.359Z,33.56
2023-09-23T13:23:41.719Z,33.58
2023-09-23T13:26:11.765Z,33.42
2023-09-23T13:28:42.055Z,33.50
2023-09-23T13:31:12.084Z,33.60
2023-09-23T13:33:42.156Z,33.22
2023-09-23T13:36:12.417Z,33.34
2023-09-23T13:38:42.987Z,33.32
2023-09-23T13:41:13.100Z,33.27
2023-09-23T13:43:43.049Z,33.16
2023-09-23T13:46:13.156Z,33.07
2023-09-23T14:01:54.905Z,31.19
2023-09-23T14:04:24.918Z,30.75
2023-09-23T14:06:54.794Z,30.17
2023-09-23T14:09:24.877Z,30.03
2023-09-23T14:11:54.757Z,30.05
2023-09-23T14:14:24.691Z,30.03
2023-09-23T14:16:54.724Z,30.10
2023-09-23T14:19:24.774Z,29.74
2023-09-23T14:21:54.794Z,29.63
2023-09-23T14:24:26.739Z,29.48
2023-09-23T14:26:58.001Z,29.59
2023-09-23T14:29:30.200Z,29.69
2023-09-23T14:32:00.171Z,29.79
2023-09-23T14:34:30.417Z,29.91
2023-09-23T14:37:00.326Z,30.28
2023-09-23T14:39:30.294Z,30.22
2023-09-23T14:42:00.324Z,30.42
2023-09-23T14:44:30.528Z,30.43
2023-09-23T14:47:00.636Z,30.86
2023-09-23T14:49:30.526Z,30.77
2023-09-23T14:52:00.597Z,30.75
2023-09-23T14:54:30.890Z,31.14
2023-09-23T14:57:00.893Z,31.26
2023-09-23T14:59:30.815Z,31.23
2023-09-23T15:02:01.596Z,31.28
2023-09-23T15:04:32.037Z,31.24
2023-09-23T15:07:02.091Z,31.39
2023-09-23T15:09:33.720Z,31.54
2023-09-23T15:12:04.107Z,31.67
2023-09-23T15:14:35.738Z,32.10
2023-09-23T15:17:06.503Z,31.95
2023-09-23T15:19:37.641Z,32.40
2023-09-23T15:22:07.720Z,32.69
2023-09-23T15:24:40.066Z,32.75
2023-09-23T15:27:10.689Z,32.80
2023-09-23T15:29:40.963Z,32.82
2023-09-23T15:32:11.197Z,32.95
2023-09-23T15:34:41.168Z,33.00
2023-09-23T15:37:11.252Z,32.89
2023-09-23T15:39:41.266Z,32.86
2023-09-23T15:42:11.995Z,32.80
2023-09-23T15:44:42.020Z,32.96
2023-09-23T15:47:12.257Z,33.24
2023-09-23T15:49:44.298Z,33.34
2023-09-23T15:52:18.544Z,33.24
2023-09-23T15:54:49.492Z,33.64
2023-09-23T15:57:19.496Z,33.97
2023-09-23T15:59:50.691Z,34.24
2023-09-23T16:02:21.031Z,34.40
2023-09-23T16:04:51.020Z,34.62
2023-09-23T16:07:21.194Z,34.84
2023-09-23T16:09:51.387Z,35.00
2023-09-23T16:12:21.468Z,34.99
2023-09-23T16:14:51.416Z,35.24
2023-09-23T16:17:21.586Z,35.17
2023-09-23T16:19:51.520Z,35.29
2023-09-23T16:22:22.012Z,35.44
2023-09-23T16:24:52.007Z,35.70
2023-09-23T16:27:22.727Z,35.88
2023-09-23T16:29:52.850Z,35.92
2023-09-23T16:32:23.381Z,36.05
2023-09-23T16:34:53.403Z,36.36
2023-09-23T16:37:23.620Z,36.37
2023-09-23T16:39:53.527Z,36.51
2023-09-23T16:42:23.713Z,36.77
2023-09-23T16:44:53.710Z,36.93
2023-09-23T16:47:23.977Z,37.14
2023-09-23T16:49:54.354Z,37.32
2023-09-23T16:52:24.285Z,37.43
2023-09-23T16:54:54.184Z,37.79
2023-09-23T16:57:24.215Z,37.90
2023-09-23T16:59:54.174Z,38.07
2023-09-23T17:02:24.203Z,38.30
2023-09-23T17:04:54.112Z,38.46
2023-09-23T17:07:24.085Z,38.69
2023-09-23T17:09:54.359Z,38.93
2023-09-23T17:12:24.631Z,39.15
2023-09-23T17:14:55.370Z,39.31
2023-09-23T17:17:25.695Z,39.32
2023-09-23T17:19:56.377Z,39.64
2023-09-23T17:22:26.556Z,39.82
2023-09-23T17:24:56.585Z,39.96
2023-09-23T17:27:27.251Z,40.00
2023-09-23T17:29:57.605Z,40.21
2023-09-23T17:32:27.902Z,40.43
2023-09-23T17:34:58.381Z,40.53
2023-09-23T17:37:28.302Z,40.68
2023-09-23T17:39:58.577Z,40.84
2023-09-23T17:42:28.675Z,41.07
2023-09-23T17:44:58.654Z,41.13
2023-09-23T17:47:29.056Z,41.20
2023-09-23T17:49:59.537Z,41.66
2023-09-23T17:52:29.885Z,41.67
2023-09-23T17:55:00.366Z,41.81
2023-09-23T17:57:30.513Z,41.86
2023-09-23T18:00:00.759Z,42.00
2023-09-23T18:02:30.944Z,41.96
2023-09-23T18:05:00.932Z,42.37
2023-09-23T18:07:31.026Z,42.33
2023-09-23T18:10:02.318Z,42.66
2023-09-23T18:12:33.728Z,42.71
2023-09-23T18:15:05.015Z,42.80
2023-09-23T18:17:36.868Z,43.12
2023-09-23T18:20:09.328Z,43.06
2023-09-23T18:22:43.125Z,43.23
2023-09-23T18:25:13.425Z,43.29
2023-09-23T18:27:43.754Z,43.38
2023-09-23T18:30:14.902Z,43.25
2023-09-23T18:32:45.618Z,43.46
2023-09-23T18:35:16.242Z,43.56
2023-09-23T18:37:46.465Z,43.85
2023-09-23T18:40:16.897Z,43.92
2023-09-23T18:42:47.026Z,44.03
2023-09-23T18:45:17.639Z,43.95
2023-09-23T18:47:47.751Z,44.20
2023-09-23T18:50:18.292Z,44.10
2023-09-23T18:52:49.869Z,44.11
2023-09-23T18:55:20.232Z,44.22
2023-09-23T18:57:52.045Z,44.39
2023-09-23T19:00:22.584Z,44.41
2023-09-23T19:02:53.026Z,44.40
2023-09-23T19:05:24.362Z,44.37
2023-09-23T19:07:54.456Z,44.52
2023-09-23T19:10:25.045Z,44.48
2023-09-23T19:12:57.710Z,44.47
2023-09-23T19:15:27.812Z,44.50
2023-09-23T19:17:58.466Z,44.57
2023-09-23T19:20:28.728Z,44.71
2023-09-23T19:22:59.662Z,44.79
2023-09-23T19:25:29.674Z,44.86
2023-09-23T19:27:59.727Z,44.93
2023-09-23T19:30:30.235Z,45.20
2023-09-23T19:33:00.478Z,45.13
2023-09-23T19:35:30.791Z,44.86
2023-09-23T19:38:01.154Z,45.09
2023-09-23T19:40:31.086Z,44.98
2023-09-23T19:43:01.143Z,45.23
2023-09-23T19:45:32.393Z,45.56
2023-09-23T19:48:02.690Z,45.79
2023-09-23T19:50:35.532Z,45.91
2023-09-23T19:53:06.281Z,46.17
2023-09-23T19:55:36.213Z,46.37
2023-09-23T19:58:08.068Z,46.40
2023-09-23T20:00:38.840Z,46.41
2023-09-23T20:03:10.260Z,46.55
2023-09-23T20:05:40.420Z,46.77
2023-09-23T20:08:12.107Z,46.87
2023-09-23T20:10:43.050Z,47.14
2023-09-23T20:13:13.266Z,47.15
2023-09-23T20:15:43.699Z,47.22
2023-09-23T20:18:13.949Z,47.37
2023-09-23T20:20:45.919Z,47.58
2023-09-23T20:23:16.215Z,47.67
2023-09-23T20:25:49.747Z,47.84
2023-09-23T20:28:21.691Z,47.98
2023-09-23T20:30:51.778Z,48.08
2023-09-23T20:33:22.179Z,48.12
2023-09-23T20:35:52.935Z,48.28
2023-09-23T20:38:24.152Z,48.38
2023-09-23T20:41:03.381Z,48.48
2023-09-23T20:43:33.719Z,48.62
2023-09-23T20:46:04.560Z,48.84
2023-09-23T20:48:34.739Z,49.04
2023-09-23T20:51:05.153Z,48.97
2023-09-23T20:53:36.610Z,48.97
2023-09-23T20:56:09.467Z,49.05
2023-09-23T20:58:39.906Z,49.14
2023-09-23T21:01:10.187Z,49.29
2023-09-23T21:03:40.456Z,49.36
2023-09-23T21:06:10.763Z,49.22
2023-09-23T21:08:40.684Z,49.46
2023-09-23T21:11:11.240Z,49.47
2023-09-23T21:13:41.274Z,49.59
2023-09-23T21:16:14.207Z,49.58
2023-09-23T21:18:44.853Z,49.60
2023-09-23T21:21:15.019Z,49.65
2023-09-23T21:23:45.091Z,49.66
2023-09-23T21:26:15.650Z,49.60
2023-09-23T21:28:45.750Z,49.87
2023-09-23T21:31:16.014Z,49.91
2023-09-23T21:33:46.601Z,49.96
2023-09-23T21:36:16.958Z,50.07
2023-09-23T21:38:48.599Z,49.86
2023-09-23T21:41:19.102Z,49.96
2023-09-23T21:43:49.611Z,49.95
2023-09-23T21:46:20.584Z,50.05
2023-09-23T21:48:51.263Z,50.16
2023-09-23T21:51:21.468Z,50.23
2023-09-23T21:53:51.659Z,50.18
2023-09-23T21:56:29.891Z,50.16
2023-09-23T21:59:10.419Z,50.24
2023-09-23T22:01:40.549Z,50.22
2023-09-23T22:04:10.837Z,50.34
2023-09-23T22:06:41.394Z,50.29
2023-09-23T22:09:11.537Z,50.46
2023-09-23T22:11:43.147Z,50.52
2023-09-23T22:14:13.630Z,50.63
2023-09-23T22:16:43.637Z,50.50
2023-09-23T22:19:14.133Z,50.67
2023-09-23T22:21:45.363Z,50.68
2023-09-23T22:24:15.404Z,50.70
2023-09-23T22:26:47.300Z,50.78
2023-09-23T22:29:17.550Z,50.76
2023-09-23T22:31:48.463Z,50.74
2023-09-23T22:34:19.467Z,50.93
2023-09-23T22:36:49.356Z,50.99
2023-09-23T22:39:19.447Z,51.02
2023-09-23T22:41:50.916Z,51.12
2023-09-23T22:44:21.046Z,51.00
2023-09-23T22:46:51.392Z,51.09
2023-09-23T22:49:22.639Z,51.06
2023-09-23T22:51:54.637Z,51.08
2023-09-23T22:54:24.860Z,51.29
2023-09-23T22:56:54.948Z,51.47
2023-09-23T22:59:27.378Z,51.53
2023-09-23T23:01:59.234Z,51.82
2023-09-23T23:04:29.881Z,51.86
2023-09-23T23:07:00.087Z,52.01
2023-09-23T23:09:30.261Z,52.18
2023-09-23T23:12:00.450Z,52.22
2023-09-23T23:14:30.938Z,52.16
2023-09-23T23:17:01.078Z,52.39
2023-09-23T23:19:31.316Z,52.42
2023-09-23T23:22:01.368Z,52.58
2023-09-23T23:24:31.295Z,52.66
2023-09-23T23:27:01.186Z,52.58
2023-09-23T23:29:31.716Z,52.68
2023-09-23T23:32:01.851Z,52.64
2023-09-23T23:34:31.853Z,52.82
2023-09-23T23:37:04.781Z,52.99
2023-09-23T23:39:34.863Z,52.97
2023-09-23T23:42:05.929Z,53.11
2023-09-23T23:44:36.767Z,53.05
2023-09-23T23:47:07.967Z,53.05
2023-09-23T23:49:38.429Z,53.14
2023-09-23T23:52:10.874Z,53.23
2023-09-23T23:54:40.736Z,53.38
2023-09-23T23:57:10.624Z,53.49
2023-09-23T23:59:41.307Z,53.51
